Main page
METAR-TAF:

METAR-TAF

Airports :

Sabadell Airport

Sabadell, Spain

latitude: 41-31N, longitude: 002-06E, elevation: 250 m

Current weather observation

The report was made 11 minutes ago, at 09:00 UTC
Wind 9 kt from the West, varying between Southwest and West/Northwest
Temperature 16°C
Humidity 51%
Pressure 1007 hPa
Visibility 10 km or more
Scattered clouds at a height of 5500 ft

METAR: LELL 240900Z 26009KT 220V290 9999 SCT055 16/06 Q1007

Time: 11:11 (09:11 UTC)

Forecast

The report was made 1 hour and 11 minutes ago, at 08:00 UTC
Forecast valid from 24 at 09 UTC to 25 at 09 UTC
Wind 12 kt from the West
Visibility 10 km or more
Scattered clouds at a height of 3000 ft
Becoming
from 24 at 10 UTC to 24 at 13 UTC
Wind 10 kt from the South/Southwest with gusts up to 20 kt
Temporary
from 24 at 20 UTC to 25 at 01 UTC
Wind 4 kt from variable directions

TAF: LELL 240800Z 2409/2509 26012KT 9999 SCT030 TX19/2413Z TN09/2506Z BECMG 2410/2413 21010G20KT TEMPO 2420/2501 VRB04KT

Weather observations and forecasts of more than 4000 airports (METAR and TAF reports).

The available stations are represented by yellow and red dots on the map.

Hover mouse over dot to see the name of the station.

Then click to see weather observations and forecasts.

To change the map : click on the green buttons with a black cross to zoom in, on the green button with a dash to zoom out, or on the green arrows for adjacent maps.


METAR-TAF: